Time,TemperatureF,DewpointF,PressureIn,WindDirection,WindDirectionDegrees,WindSpeedMPH,WindSpeedGustMPH,Humidity,HourlyPrecipIn,Conditions,Clouds,dailyrainin,SolarRadiationWatts/m^2,SoftwareType,DateUTC
2013-05-31 00:02:00,80.0,70.0,-100.00,SSE,151,8.0,19.0,72,0.00,,,0.01,0.000000,,2013-05-31 05:02:00,
2013-05-31 00:32:00,79.0,70.0,-100.00,SSE,152,10.0,21.0,75,0.00,,,0.01,0.000000,,2013-05-31 05:32:00,
2013-05-31 00:42:00,79.0,70.0,-100.00,SSE,152,10.0,21.0,75,0.00,,,0.01,0.000000,,2013-05-31 05:42:00,
2013-05-31 00:52:00,79.0,70.0,-100.00,SSE,152,10.0,21.0,75,0.00,,,0.01,0.000000,,2013-05-31 05:52:00,
2013-05-31 01:02:00,79.0,70.0,-100.00,SSE,152,10.0,21.0,75,0.00,,,0.01,0.000000,,2013-05-31 06:02:00,
2013-05-31 01:32:00,79.0,72.0,-100.00,SSE,163,14.0,22.0,78,0.00,,,0.01,0.000000,,2013-05-31 06:32:00,
2013-05-31 01:42:00,79.0,72.0,-100.00,SSE,163,14.0,22.0,78,0.00,,,0.01,0.000000,,2013-05-31 06:42:00,
2013-05-31 01:52:00,79.0,72.0,-100.00,SSE,163,14.0,22.0,78,0.00,,,0.01,0.000000,,2013-05-31 06:52:00,
2013-05-31 02:02:00,79.0,72.0,-100.00,SSE,163,14.0,22.0,78,0.00,,,0.01,0.000000,,2013-05-31 07:02:00,
2013-05-31 02:32:00,78.0,72.0,-100.00,SSE,166,15.0,22.0,81,0.00,,,0.01,0.000000,,2013-05-31 07:32:00,
2013-05-31 02:42:00,78.0,72.0,-100.00,SSE,166,15.0,22.0,81,0.00,,,0.01,0.000000,,2013-05-31 07:42:00,
2013-05-31 02:52:00,78.0,72.0,-100.00,SSE,166,15.0,22.0,81,0.00,,,0.01,0.000000,,2013-05-31 07:52:00,
2013-05-31 03:02:00,78.0,72.0,-100.00,SSE,166,15.0,22.0,81,0.00,,,0.01,0.000000,,2013-05-31 08:02:00,
2013-05-31 03:32:00,77.0,71.0,-100.00,South,172,14.0,23.0,83,0.00,,,0.01,0.000000,,2013-05-31 08:32:00,
2013-05-31 03:42:00,77.0,71.0,-100.00,South,172,14.0,23.0,83,0.00,,,0.01,0.000000,,2013-05-31 08:42:00,
2013-05-31 03:52:00,77.0,71.0,-100.00,South,172,14.0,23.0,83,0.00,,,0.01,0.000000,,2013-05-31 08:52:00,
2013-05-31 04:01:00,77.0,71.0,-100.00,South,172,14.0,23.0,83,0.00,,,0.01,0.000000,,2013-05-31 09:01:00,
2013-05-31 04:32:00,77.0,71.0,-100.00,South,176,15.0,24.0,83,0.00,,,0.01,0.000000,,2013-05-31 09:32:00,
2013-05-31 04:43:00,77.0,71.0,-100.00,South,176,15.0,24.0,83,0.00,,,0.01,0.000000,,2013-05-31 09:43:00,
2013-05-31 04:53:00,77.0,71.0,-100.00,South,176,15.0,24.0,83,0.00,,,0.01,0.000000,,2013-05-31 09:53:00,
2013-05-31 05:02:00,77.0,71.0,-100.00,South,176,15.0,24.0,83,0.00,,,0.01,0.000000,,2013-05-31 10:02:00,
2013-05-31 05:33:00,77.0,70.0,-100.00,South,170,12.0,20.0,79,0.00,,,0.01,0.000000,,2013-05-31 10:33:00,
2013-05-31 05:42:00,77.0,70.0,-100.00,South,170,12.0,20.0,79,0.00,,,0.01,0.000000,,2013-05-31 10:42:00,
2013-05-31 05:52:00,77.0,70.0,-100.00,South,170,12.0,20.0,79,0.00,,,0.01,0.000000,,2013-05-31 10:52:00,
2013-05-31 06:02:00,77.0,70.0,-100.00,South,170,12.0,20.0,79,0.00,,,0.01,0.000000,,2013-05-31 11:02:00,
2013-05-31 06:32:00,77.0,70.0,-100.00,SSE,165,11.0,21.0,80,0.00,,,0.01,0.000000,,2013-05-31 11:32:00,
2013-05-31 06:42:00,77.0,70.0,-100.00,SSE,165,11.0,21.0,80,0.00,,,0.01,0.000000,,2013-05-31 11:42:00,
2013-05-31 06:52:00,77.0,70.0,-100.00,SSE,165,11.0,21.0,80,0.00,,,0.01,0.000000,,2013-05-31 11:52:00,
2013-05-31 07:01:00,77.0,70.0,-100.00,SSE,165,11.0,21.0,80,0.00,,,0.01,0.000000,,2013-05-31 12:01:00,
2013-05-31 07:32:00,77.0,71.0,-100.00,SSE,164,11.0,20.0,82,0.00,,,-99.99,7.000000,,2013-05-31 12:32:00,
2013-05-31 07:42:00,77.0,71.0,-100.00,SSE,164,11.0,20.0,82,0.00,,,-99.99,7.000000,,2013-05-31 12:42:00,
2013-05-31 07:52:00,77.0,71.0,-100.00,SSE,164,11.0,20.0,82,0.00,,,-99.99,7.000000,,2013-05-31 12:52:00,
2013-05-31 08:01:00,77.0,71.0,-100.00,SSE,164,11.0,20.0,82,0.00,,,-99.99,7.000000,,2013-05-31 13:01:00,
2013-05-31 08:32:00,77.0,71.0,-100.00,SSE,162,10.0,21.0,82,0.00,,,0.01,44.000000,,2013-05-31 13:32:00,
2013-05-31 08:42:00,77.0,71.0,-100.00,SSE,162,10.0,21.0,82,0.00,,,0.01,44.000000,,2013-05-31 13:42:00,
2013-05-31 08:52:00,77.0,71.0,-100.00,SSE,162,10.0,21.0,82,0.00,,,0.01,44.000000,,2013-05-31 13:52:00,
2013-05-31 09:02:00,77.0,71.0,-100.00,SSE,162,10.0,21.0,82,0.00,,,0.01,44.000000,,2013-05-31 14:02:00,
2013-05-31 10:33:00,80.0,71.0,-100.00,South,178,10.0,18.0,75,-99.99,,,0.00,251.000000,,2013-05-31 15:33:00,
2013-05-31 10:43:00,80.0,71.0,-100.00,South,178,10.0,18.0,75,-99.99,,,0.00,251.000000,,2013-05-31 15:43:00,
2013-05-31 10:53:00,80.0,71.0,-100.00,South,178,10.0,18.0,75,-99.99,,,0.00,251.000000,,2013-05-31 15:53:00,
2013-05-31 11:03:00,80.0,71.0,-100.00,South,178,10.0,18.0,75,-99.99,,,0.00,251.000000,,2013-05-31 16:03:00,
2013-05-31 11:33:00,82.0,73.0,-100.00,South,180,9.0,18.0,74,0.00,,,0.00,287.000000,,2013-05-31 16:33:00,
2013-05-31 11:42:00,82.0,73.0,-100.00,South,180,9.0,18.0,74,0.00,,,0.00,287.000000,,2013-05-31 16:42:00,
2013-05-31 11:52:00,82.0,73.0,-100.00,South,180,9.0,18.0,74,0.00,,,0.00,287.000000,,2013-05-31 16:52:00,
2013-05-31 12:02:00,82.0,73.0,-100.00,South,180,9.0,18.0,74,0.00,,,0.00,287.000000,,2013-05-31 17:02:00,
2013-05-31 12:32:00,84.0,71.0,-100.00,South,175,13.0,20.0,66,0.00,,,0.00,525.000000,,2013-05-31 17:32:00,
2013-05-31 12:42:00,84.0,71.0,-100.00,South,175,13.0,20.0,66,0.00,,,0.00,525.000000,,2013-05-31 17:42:00,
2013-05-31 12:52:00,84.0,71.0,-100.00,South,175,13.0,20.0,66,0.00,,,0.00,525.000000,,2013-05-31 17:52:00,
2013-05-31 13:01:00,84.0,71.0,-100.00,South,175,13.0,20.0,66,0.00,,,0.00,525.000000,,2013-05-31 18:01:00,
2013-05-31 13:32:00,85.0,72.0,-100.00,SSE,168,14.0,22.0,65,0.00,,,0.00,549.000000,,2013-05-31 18:32:00,
2013-05-31 13:42:00,85.0,72.0,-100.00,SSE,168,14.0,22.0,65,0.00,,,0.00,549.000000,,2013-05-31 18:42:00,
2013-05-31 13:52:00,85.0,72.0,-100.00,SSE,168,14.0,22.0,65,0.00,,,0.00,549.000000,,2013-05-31 18:52:00,
2013-05-31 14:02:00,85.0,72.0,-100.00,SSE,168,14.0,22.0,65,0.00,,,0.00,549.000000,,2013-05-31 19:02:00,
2013-05-31 14:32:00,87.0,71.0,-100.00,SSE,167,13.0,22.0,60,0.00,,,0.00,701.000000,,2013-05-31 19:32:00,
2013-05-31 14:42:00,87.0,71.0,-100.00,SSE,167,13.0,22.0,60,0.00,,,0.00,701.000000,,2013-05-31 19:42:00,
2013-05-31 14:52:00,87.0,71.0,-100.00,SSE,167,13.0,22.0,60,0.00,,,0.00,701.000000,,2013-05-31 19:52:00,
2013-05-31 15:01:00,87.0,71.0,-100.00,SSE,167,13.0,22.0,60,0.00,,,0.00,701.000000,,2013-05-31 20:01:00,
2013-05-31 15:32:00,89.0,71.0,-100.00,SSE,163,14.0,25.0,56,0.00,,,0.00,787.000000,,2013-05-31 20:32:00,
2013-05-31 15:42:00,89.0,71.0,-100.00,SSE,163,14.0,25.0,56,0.00,,,0.00,787.000000,,2013-05-31 20:42:00,
2013-05-31 15:52:00,89.0,71.0,-100.00,SSE,163,14.0,25.0,56,0.00,,,0.00,787.000000,,2013-05-31 20:52:00,
2013-05-31 16:01:00,89.0,71.0,-100.00,SSE,163,14.0,25.0,56,0.00,,,0.00,787.000000,,2013-05-31 21:01:00,
2013-05-31 16:33:00,90.0,71.0,-100.00,SSE,162,15.0,25.0,53,0.00,,,0.00,819.000000,,2013-05-31 21:33:00,
2013-05-31 16:43:00,90.0,71.0,-100.00,SSE,162,15.0,25.0,53,0.00,,,0.00,819.000000,,2013-05-31 21:43:00,
2013-05-31 16:54:00,90.0,71.0,-100.00,SSE,162,15.0,25.0,53,0.00,,,0.00,819.000000,,2013-05-31 21:54:00,
2013-05-31 17:02:00,90.0,71.0,-100.00,SSE,162,15.0,25.0,53,0.00,,,0.00,819.000000,,2013-05-31 22:02:00,
2013-05-31 17:33:00,90.0,70.0,-100.00,South,170,14.0,24.0,52,0.00,,,0.00,542.000000,,2013-05-31 22:33:00,
2013-05-31 17:42:00,90.0,70.0,-100.00,South,170,14.0,24.0,52,0.00,,,0.00,542.000000,,2013-05-31 22:42:00,
2013-05-31 17:53:00,90.0,70.0,-100.00,South,170,14.0,24.0,52,0.00,,,0.00,542.000000,,2013-05-31 22:53:00,
2013-05-31 18:02:00,90.0,70.0,-100.00,South,170,14.0,24.0,52,0.00,,,0.00,542.000000,,2013-05-31 23:02:00,
2013-05-31 18:32:00,90.0,69.0,-100.00,South,176,11.0,24.0,51,0.00,,,0.00,471.000000,,2013-05-31 23:32:00,
2013-05-31 18:42:00,90.0,69.0,-100.00,South,176,11.0,24.0,51,0.00,,,0.00,471.000000,,2013-05-31 23:42:00,
2013-05-31 18:52:00,90.0,69.0,-100.00,South,176,11.0,24.0,51,0.00,,,0.00,471.000000,,2013-05-31 23:52:00,
2013-05-31 19:01:00,90.0,69.0,-100.00,South,176,11.0,24.0,51,0.00,,,0.00,471.000000,,2013-06-01 00:01:00,
2013-05-31 19:22:00,88.0,70.0,-100.00,SSE,164,13.0,23.0,56,0.00,,,0.00,327.000000,,2013-06-01 00:22:00,
2013-05-31 19:32:00,88.0,70.0,-100.00,SSE,164,13.0,23.0,56,0.00,,,0.00,327.000000,,2013-06-01 00:32:00,
2013-05-31 19:42:00,88.0,70.0,-100.00,SSE,164,13.0,23.0,56,0.00,,,0.00,327.000000,,2013-06-01 00:42:00,
2013-05-31 19:52:00,88.0,70.0,-100.00,SSE,164,13.0,23.0,56,0.00,,,0.00,327.000000,,2013-06-01 00:52:00,
2013-05-31 20:01:00,88.0,70.0,-100.00,SSE,164,13.0,23.0,56,0.00,,,0.00,327.000000,,2013-06-01 01:01:00,
2013-05-31 20:32:00,85.0,70.0,-100.00,SSE,168,12.0,21.0,61,0.00,,,0.00,110.000000,,2013-06-01 01:32:00,
2013-05-31 20:42:00,85.0,70.0,-100.00,SSE,168,12.0,21.0,61,0.00,,,0.00,110.000000,,2013-06-01 01:42:00,
2013-05-31 20:52:00,85.0,70.0,-100.00,SSE,168,12.0,21.0,61,0.00,,,0.00,110.000000,,2013-06-01 01:52:00,
2013-05-31 21:01:00,85.0,70.0,-100.00,SSE,168,12.0,21.0,61,0.00,,,0.00,110.000000,,2013-06-01 02:01:00,
2013-05-31 21:32:00,84.0,71.0,-100.00,SSE,168,10.0,15.0,65,0.00,,,0.00,7.000000,,2013-06-01 02:32:00,
2013-05-31 21:42:00,84.0,71.0,-100.00,SSE,168,10.0,15.0,65,0.00,,,0.00,7.000000,,2013-06-01 02:42:00,
2013-05-31 21:52:00,84.0,71.0,-100.00,SSE,168,10.0,15.0,65,0.00,,,0.00,7.000000,,2013-06-01 02:52:00,
2013-05-31 22:01:00,84.0,71.0,-100.00,SSE,168,10.0,15.0,65,0.00,,,0.00,7.000000,,2013-06-01 03:01:00,
2013-05-31 22:33:00,83.0,71.0,-100.00,SSE,156,8.0,16.0,67,0.00,,,0.00,0.000000,,2013-06-01 03:33:00,
2013-05-31 22:43:00,83.0,71.0,-100.00,SSE,156,8.0,16.0,67,0.00,,,0.00,0.000000,,2013-06-01 03:43:00,
2013-05-31 22:53:00,83.0,71.0,-100.00,SSE,156,8.0,16.0,67,0.00,,,0.00,0.000000,,2013-06-01 03:53:00,
2013-05-31 23:02:00,83.0,71.0,-100.00,SSE,156,8.0,16.0,67,0.00,,,0.00,0.000000,,2013-06-01 04:02:00,
2013-05-31 23:33:00,82.0,71.0,-100.00,SSE,154,12.0,19.0,69,0.00,,,0.00,0.000000,,2013-06-01 04:33:00,
2013-05-31 23:42:00,82.0,71.0,-100.00,SSE,154,12.0,19.0,69,0.00,,,0.00,0.000000,,2013-06-01 04:42:00,
2013-05-31 23:53:00,82.0,71.0,-100.00,SSE,154,12.0,19.0,69,0.00,,,0.00,0.000000,,2013-06-01 04:53:00,